Kezdőlap
METAR-TAF:

METAR-TAF

Repülőterek :

Thule, Grönland

földrajzi szélesség: 76-32N, földrajzi hosszúság: 068-42W, magasság: 77 m

Jelenlegi meteorológiai megfigyelések

A jelentés 51 perccel ezelõtt készült, 07:06 UTC
Északnyugati szél 5 kt
Hőmérséklet -3°C
Páratartalom 100%
Légköri nyomás 1001 hPa
Látótávolság 10 km, vagy több
Borult 500 lábon

METAR: BGTL 260706Z AUTO 31005KT 9999 OVC005 M03/M03 A2957 RMK AO2 SLP000 TSNO $

Idő: 04:57 (07:57 UTC)


TAF: hiányzik

Meteorológiai megfigyelések és előrejelzések több, mint 4000 repülőtéren (METAR és TAF jelentéseket).

A térképen piros és sárga pontok jelzik az elérhető meteorológiai állomásokat.

Mozgassa az egeret a pont fölött, hogy megjelenjen az állomás neve.

Azután kattintson az időjárási megfigyelések és előrejelzések megtekintéséhez.

A térkép megváltoztatása: kattintson a fekete keresztel jelölt zöld gombra ráközelítéshez, a vonallal jelölt zöld gombra távolításhoz, vagy a zöld nyilakra a szomszédos térképek eléréséhez.


METAR-TAF: